Time;durP1;ratioP1;P1;durP2;ratioP2;P2;SDS_P1;SDS_P2;PMS_P1;PMS_P2;Temp;Humidity;BMP_temperature;BMP_pressure;BME280_temperature;BME280_humidity;BME280_pressure;Samples;Min_cycle;Max_cycle;Signal;HPM_P1;HPM_P2
2022/11/19 00:13:13;;;;;;;33.10;14.90;;;;;;;-0.60;75.61;99928.46;661491;1310;138812;-74
2022/11/19 00:28:16;;;;;;;31.10;13.40;;;;;;;-0.55;75.85;99924.81;661647;1309;138595;-74
2022/11/19 00:58:43;;;;;;;64.80;29.20;;;;;;;-0.55;76.70;99940.44;663075;1303;138713;-74
2022/11/19 01:13:47;;;;;;;83.70;30.30;;;;;;;-0.63;76.47;99935.66;661308;1310;138698;-74
2022/11/19 01:28:50;;;;;;;96.50;33.50;;;;;;;-0.73;77.19;99940.62;661616;1310;138881;-74
2022/11/19 01:44:28;;;;;;;47.00;19.90;;;;;;;-0.60;76.66;99940.17;661477;1310;138770;-74
2022/11/19 01:59:31;;;;;;;70.80;27.10;;;;;;;-0.46;77.07;99938.83;661683;1310;138793;-74
2022/11/19 02:14:47;;;;;;;35.70;15.50;;;;;;;-0.48;77.41;99934.98;661861;1309;139210;-74
2022/11/19 02:30:03;;;;;;;28.60;14.90;;;;;;;-0.49;77.92;99939.67;661792;1310;138786;-74
2022/11/19 02:45:30;;;;;;;19.90;10.90;;;;;;;-0.39;78.18;99942.79;661386;1309;138698;-74
2022/11/19 03:31:34;;;;;;;30.80;14.90;;;;;;;-0.47;80.07;99952.12;661410;1310;138681;-74
2022/11/19 03:46:40;;;;;;;23.30;11.60;;;;;;;-0.49;79.77;99949.30;661378;1308;138693;-74
2022/11/19 04:01:49;;;;;;;21.10;10.50;;;;;;;-0.54;79.58;99952.08;661322;1308;138712;-74
2022/11/19 04:16:54;;;;;;;27.50;13.50;;;;;;;-0.59;79.83;99949.08;661381;1310;138660;-74
2022/11/19 04:31:57;;;;;;;25.70;12.10;;;;;;;-0.64;79.63;99948.77;661709;1310;138696;-74
2022/11/19 04:47:01;;;;;;;25.70;12.20;;;;;;;-0.62;79.40;99950.05;661739;1307;138829;-74
2022/11/19 05:02:04;;;;;;;20.10;10.40;;;;;;;-0.63;79.71;99940.65;661623;1310;138588;-74
2022/11/19 05:17:07;;;;;;;26.40;11.80;;;;;;;-0.74;79.27;99935.31;661736;1310;138845;-74
2022/11/19 05:32:11;;;;;;;23.40;11.60;;;;;;;-0.75;80.18;99930.23;661267;1310;138808;-74
2022/11/19 05:47:15;;;;;;;28.10;13.50;;;;;;;-0.77;81.00;99937.52;661830;1305;138774;-74
2022/11/19 06:02:18;;;;;;;72.00;30.20;;;;;;;-0.82;82.26;99951.52;661396;1311;139024;-74
2022/11/19 06:17:22;;;;;;;42.80;24.90;;;;;;;-0.73;82.31;99963.62;661536;1311;138825;-74
2022/11/19 06:32:26;;;;;;;29.70;12.30;;;;;;;-0.85;82.71;99974.80;661492;1310;138898;-74
2022/11/19 06:47:30;;;;;;;45.00;23.70;;;;;;;-0.99;83.91;99986.98;661589;1311;138677;-74
2022/11/19 07:02:33;;;;;;;75.10;46.00;;;;;;;-0.97;84.80;99999.05;661614;1309;138862;-74
2022/11/19 07:17:38;;;;;;;32.00;18.30;;;;;;;-0.92;84.89;100003.63;661747;1310;139019;-74
2022/11/19 07:32:42;;;;;;;32.00;15.60;;;;;;;-0.79;84.59;100004.60;661671;1310;138898;-74
2022/11/19 07:47:47;;;;;;;90.00;43.30;;;;;;;-0.60;83.32;100009.42;661890;1309;138949;-74
2022/11/19 08:02:50;;;;;;;38.30;19.40;;;;;;;-0.57;82.77;100009.27;661299;1310;138974;-74
2022/11/19 08:18:14;;;;;;;58.00;29.90;;;;;;;-0.45;81.90;100013.89;661532;1305;138898;-74
2022/11/19 08:33:18;;;;;;;37.50;22.40;;;;;;;-0.11;81.78;100013.66;661685;1310;138874;-74
2022/11/19 08:48:21;;;;;;;25.90;13.40;;;;;;;-0.24;81.35;100021.45;661648;1311;138938;-75
2022/11/19 09:03:24;;;;;;;24.50;13.80;;;;;;;-0.10;80.61;100023.23;661715;1310;138773;-74
2022/11/19 09:18:29;;;;;;;752.00;353.80;;;;;;;0.03;79.60;100024.66;661656;1303;139019;-74
2022/11/19 09:33:37;;;;;;;36.00;19.70;;;;;;;0.11;79.39;100019.50;661477;1310;139513;-75
2022/11/19 09:48:40;;;;;;;35.70;19.10;;;;;;;0.12;77.92;100021.64;661395;1310;138865;-74
2022/11/19 10:03:48;;;;;;;33.90;16.80;;;;;;;0.30;78.57;100016.64;661487;1310;139922;-74
2022/11/19 12:30:17;;;;;;;96.60;31.20;;;;;;;0.11;77.37;99992.82;624937;1342;545447;-75
2022/11/19 12:46:01;;;;;;;41.00;21.00;;;;;;;0.19;77.39;99990.52;641036;1303;138220;-75
2022/11/19 13:01:15;;;;;;;51.60;23.30;;;;;;;0.73;76.80;99980.59;661000;1308;138281;-73
2022/11/19 13:16:21;;;;;;;139.20;45.80;;;;;;;0.99;75.01;99983.85;658545;1316;137948;-74
2022/11/19 13:31:28;;;;;;;75.50;30.30;;;;;;;0.75;73.34;99989.27;658355;1315;137879;-74
2022/11/19 13:46:36;;;;;;;74.10;36.50;;;;;;;0.66;72.70;99991.63;658524;1315;137829;-74
2022/11/19 14:02:01;;;;;;;33.80;16.00;;;;;;;0.59;72.39;100001.96;658475;1315;138048;-74
2022/11/19 14:32:57;;;;;;;35.10;20.40;;;;;;;0.35;69.25;100034.13;658676;1310;138076;-74
2022/11/19 14:48:03;;;;;;;51.60;23.60;;;;;;;0.26;70.45;100042.83;658358;1315;138376;-75
2022/11/19 15:03:25;;;;;;;85.70;35.10;;;;;;;-0.10;75.77;100056.23;658621;1311;138934;-74
2022/11/19 15:18:41;;;;;;;37.50;17.30;;;;;;;-0.21;79.15;100055.23;658370;1315;138557;-76
2022/11/19 15:34:11;;;;;;;40.20;18.20;;;;;;;-0.36;81.45;100059.49;658714;1316;138646;-74
2022/11/19 16:04:16;;;;;;;31.90;15.50;;;;;;;-0.58;84.84;100055.70;624811;1346;544904;-76
2022/11/19 16:19:20;;;;;;;35.70;16.00;;;;;;;-0.68;85.35;100058.36;633674;1322;138375;-75
2022/11/19 16:34:44;;;;;;;101.70;34.70;;;;;;;-0.77;85.77;100057.23;638050;1315;138406;-77
2022/11/19 16:50:25;;;;;;;97.60;35.40;;;;;;;-0.80;85.98;100055.47;637375;1315;138866;-77
2022/11/19 17:05:29;;;;;;;61.00;27.10;;;;;;;-0.86;86.31;100056.92;637130;1315;141832;-74
2022/11/19 17:20:33;;;;;;;69.70;34.30;;;;;;;-0.88;86.22;100058.73;635869;1316;138430;-80
2022/11/19 17:35:40;;;;;;;58.00;23.00;;;;;;;-0.87;86.42;100059.91;639712;1313;138492;-75
2022/11/19 17:50:43;;;;;;;94.20;34.60;;;;;;;-0.86;86.83;100063.30;640025;1312;138523;-76
2022/11/19 18:05:48;;;;;;;113.80;39.00;;;;;;;-0.80;86.21;100071.84;640026;1312;138713;-76
2022/11/19 18:20:51;;;;;;;87.20;35.80;;;;;;;-0.80;86.31;100066.63;642816;1312;138637;-76
2022/11/19 18:36:00;;;;;;;115.70;46.20;;;;;;;-0.82;86.74;100066.55;639920;1312;138839;-76
2022/11/19 18:51:04;;;;;;;85.50;32.70;;;;;;;-0.78;86.82;100076.00;641449;1311;139202;-75
2022/11/19 19:06:09;;;;;;;137.60;51.60;;;;;;;-0.80;87.13;100082.95;642113;1312;138824;-80
2022/11/19 19:21:16;;;;;;;66.50;19.10;;;;;;;-0.83;87.25;100084.80;639937;1312;139466;-76
2022/11/19 19:36:20;;;;;;;43.30;18.40;;;;;;;-0.78;86.26;100085.81;640372;1306;138976;-75
2022/11/19 19:51:28;;;;;;;144.10;52.80;;;;;;;-0.78;85.88;100078.77;640041;1312;139484;-75
2022/11/19 20:06:33;;;;;;;63.30;25.40;;;;;;;-0.71;85.90;100076.55;640068;1312;139435;-78
2022/11/19 20:21:37;;;;;;;48.70;23.80;;;;;;;-0.76;85.69;100079.17;640225;1312;139281;-76
2022/11/19 20:36:41;;;;;;;86.10;42.90;;;;;;;-0.72;84.74;100089.45;640226;1305;140283;-76
2022/11/19 20:51:44;;;;;;;46.10;22.00;;;;;;;-0.67;84.36;100100.41;641257;1311;139100;-77
2022/11/19 21:06:48;;;;;;;69.60;27.60;;;;;;;-0.67;84.15;100091.52;640082;1312;138758;-80
2022/11/19 21:21:52;;;;;;;52.00;22.40;;;;;;;-0.67;84.25;100088.23;640424;1310;138975;-79
2022/11/19 21:36:56;;;;;;;52.90;23.30;;;;;;;-0.64;84.09;100080.89;639939;1312;138845;-80
2022/11/19 21:52:00;;;;;;;45.80;21.30;;;;;;;-0.62;83.36;100074.60;642971;1310;139346;-76
2022/11/19 22:07:05;;;;;;;48.30;20.70;;;;;;;-0.61;83.07;100067.52;640625;1312;139077;-76
2022/11/19 22:22:09;;;;;;;46.60;20.10;;;;;;;-0.58;82.37;100059.27;640351;1306;139165;-76
2022/11/19 22:37:12;;;;;;;50.10;22.10;;;;;;;-0.50;81.13;100061.00;640192;1312;138965;-77
2022/11/19 22:52:16;;;;;;;58.10;22.30;;;;;;;-0.43;80.03;100059.31;639649;1312;138879;-77
2022/11/19 23:07:19;;;;;;;44.20;19.60;;;;;;;-0.40;79.74;100057.48;641229;1312;139282;-75
2022/11/19 23:22:23;;;;;;;42.60;19.00;;;;;;;-0.37;79.76;100063.70;641291;1312;138967;-79
2022/11/19 23:37:26;;;;;;;46.30;21.20;;;;;;;-0.36;79.47;100058.33;641408;1310;138779;-78
2022/11/19 23:52:30;;;;;;;52.20;21.50;;;;;;;-0.32;79.12;100051.95;640437;1310;139225;-77
